createdAt,value
2022-10-09T00:01:05.902Z,12.97
2022-10-09T00:03:33.931Z,12.90
2022-10-09T00:06:01.014Z,12.88
2022-10-09T00:08:28.247Z,12.85
2022-10-09T00:10:55.453Z,12.81
2022-10-09T00:13:22.973Z,12.81
2022-10-09T00:15:49.944Z,12.77
2022-10-09T00:18:18.798Z,12.77
2022-10-09T00:20:47.314Z,12.77
2022-10-09T00:23:17.323Z,12.73
2022-10-09T00:25:58.785Z,12.67
2022-10-09T00:28:27.291Z,12.52
2022-10-09T00:30:54.701Z,12.44
2022-10-09T00:33:21.895Z,12.44
2022-10-09T00:35:49.479Z,12.47
2022-10-09T00:38:16.767Z,12.47
2022-10-09T00:40:43.867Z,12.47
2022-10-09T00:43:17.684Z,12.48
2022-10-09T00:45:50.141Z,12.43
2022-10-09T00:48:18.768Z,12.41
2022-10-09T00:50:52.367Z,12.40
2022-10-09T00:53:22.353Z,12.31
2022-10-09T00:55:50.093Z,12.27
2022-10-09T00:58:17.196Z,12.26
2022-10-09T01:00:44.092Z,12.20
2022-10-09T01:03:11.312Z,12.18
2022-10-09T01:06:18.651Z,12.21
2022-10-09T01:09:01.094Z,12.22
2022-10-09T01:11:33.312Z,12.22
2022-10-09T01:14:20.172Z,12.22
2022-10-09T01:17:24.868Z,12.23
2022-10-09T01:20:29.142Z,12.24
2022-10-09T01:23:29.857Z,12.29
2022-10-09T01:26:11.017Z,12.30
2022-10-09T01:28:41.870Z,12.31
2022-10-09T01:31:11.482Z,12.33
2022-10-09T01:33:39.609Z,12.32
2022-10-09T01:36:08.633Z,12.29
2022-10-09T01:38:37.908Z,12.32
2022-10-09T01:41:07.429Z,12.24
2022-10-09T01:43:34.777Z,12.09
2022-10-09T01:46:28.450Z,12.06
2022-10-09T01:49:26.441Z,12.01
2022-10-09T01:52:08.353Z,11.98
2022-10-09T01:54:44.065Z,11.96
2022-10-09T01:57:14.583Z,11.96
2022-10-09T01:59:45.012Z,11.93
2022-10-09T02:02:12.409Z,11.91
2022-10-09T02:04:43.425Z,11.90
2022-10-09T02:07:10.714Z,11.86
2022-10-09T02:09:39.879Z,11.82
2022-10-09T02:12:11.356Z,11.79
2022-10-09T02:14:39.654Z,11.73
2022-10-09T02:17:11.853Z,11.67
2022-10-09T02:19:48.053Z,11.66
2022-10-09T02:22:26.224Z,11.58
2022-10-09T02:24:53.703Z,11.51
2022-10-09T02:27:22.063Z,11.48
2022-10-09T02:29:49.595Z,11.50
2022-10-09T02:32:17.180Z,11.45
2022-10-09T02:34:44.485Z,11.47
2022-10-09T02:37:11.530Z,11.43
2022-10-09T02:39:38.429Z,11.43
2022-10-09T02:42:05.598Z,11.42
2022-10-09T02:44:32.491Z,11.41
2022-10-09T02:46:59.508Z,11.39
2022-10-09T02:49:26.428Z,11.40
2022-10-09T02:51:53.396Z,11.39
2022-10-09T02:54:20.341Z,11.36
2022-10-09T02:56:47.261Z,11.36
2022-10-09T02:59:14.257Z,11.33
2022-10-09T03:01:41.234Z,11.32
2022-10-09T03:04:08.180Z,11.26
2022-10-09T03:06:35.186Z,11.22
2022-10-09T03:09:02.137Z,11.19
2022-10-09T03:11:29.169Z,11.18
2022-10-09T03:13:56.330Z,11.15
2022-10-09T03:16:25.554Z,11.15
2022-10-09T03:18:53.280Z,11.13
2022-10-09T03:21:27.837Z,11.10
2022-10-09T03:23:55.262Z,11.03
2022-10-09T03:26:26.030Z,11.05
2022-10-09T03:28:54.158Z,11.01
2022-10-09T03:31:50.055Z,10.95
2022-10-09T03:34:12.101Z,10.89
2022-10-09T03:36:39.320Z,10.72
2022-10-09T03:39:06.191Z,10.74
2022-10-09T03:41:33.082Z,10.74
2022-10-09T03:44:00.089Z,10.76
2022-10-09T03:46:27.141Z,10.73
2022-10-09T03:48:54.116Z,10.74
2022-10-09T03:51:21.303Z,10.73
2022-10-09T03:53:48.192Z,10.71
2022-10-09T03:56:15.101Z,10.70
2022-10-09T03:58:42.099Z,10.65
2022-10-09T04:01:09.172Z,10.60
2022-10-09T04:03:36.095Z,10.59
2022-10-09T04:06:03.853Z,10.60
2022-10-09T04:08:30.716Z,10.58
2022-10-09T04:11:01.202Z,10.57
2022-10-09T04:13:28.606Z,10.55
2022-10-09T04:15:56.582Z,10.53
2022-10-09T04:18:23.705Z,10.57
2022-10-09T04:20:55.119Z,10.58
2022-10-09T04:23:26.795Z,10.56
2022-10-09T04:25:55.484Z,10.57
2022-10-09T04:28:23.746Z,10.57
2022-10-09T04:30:51.858Z,10.56
2022-10-09T04:33:19.270Z,10.53
2022-10-09T04:35:49.571Z,10.52
2022-10-09T04:38:16.597Z,10.50
2022-10-09T04:40:43.676Z,10.46
2022-10-09T04:43:10.638Z,10.47
2022-10-09T04:45:41.343Z,10.50
2022-10-09T04:48:08.532Z,10.53
2022-10-09T04:50:39.405Z,10.54
2022-10-09T04:53:06.358Z,10.56
2022-10-09T04:55:33.296Z,10.56
2022-10-09T04:58:00.191Z,10.57
2022-10-09T05:00:27.295Z,10.55
2022-10-09T05:02:54.196Z,10.53
2022-10-09T05:05:21.133Z,10.53
2022-10-09T05:07:48.116Z,10.56
2022-10-09T05:10:15.087Z,10.57
2022-10-09T05:12:42.032Z,10.62
2022-10-09T05:15:09.347Z,10.63
2022-10-09T05:17:36.452Z,10.63
2022-10-09T05:20:03.710Z,10.69
2022-10-09T05:22:30.647Z,10.75
2022-10-09T05:24:57.549Z,10.80
2022-10-09T05:27:24.530Z,10.85
2022-10-09T05:29:51.451Z,10.91
2022-10-09T05:32:18.330Z,10.93
2022-10-09T05:34:45.258Z,10.95
2022-10-09T05:37:12.175Z,11.01
2022-10-09T05:39:39.646Z,11.09
2022-10-09T05:42:06.535Z,11.14
2022-10-09T05:44:33.488Z,11.20
2022-10-09T05:47:00.445Z,11.30
2022-10-09T05:49:27.420Z,11.39
2022-10-09T05:51:56.034Z,11.43
2022-10-09T05:54:23.151Z,11.41
2022-10-09T05:56:50.179Z,11.45
2022-10-09T05:59:22.220Z,11.57
2022-10-09T06:01:51.743Z,11.70
2022-10-09T06:04:21.741Z,11.87
2022-10-09T06:06:49.713Z,12.02
2022-10-09T06:09:19.479Z,12.14
2022-10-09T06:11:46.577Z,12.25
2022-10-09T06:14:13.922Z,12.40
2022-10-09T06:16:43.669Z,12.55
2022-10-09T06:19:12.872Z,12.66
2022-10-09T06:21:40.157Z,12.77
2022-10-09T06:24:07.504Z,12.91
2022-10-09T06:26:34.661Z,13.07
2022-10-09T06:29:03.220Z,13.21
2022-10-09T06:31:32.755Z,13.21
2022-10-09T06:34:01.846Z,13.28
2022-10-09T06:36:32.184Z,13.35
2022-10-09T06:39:00.715Z,13.31
2022-10-09T06:41:29.223Z,13.30
2022-10-09T06:43:58.405Z,13.33
2022-10-09T06:46:31.899Z,13.44
2022-10-09T06:49:00.588Z,13.55
2022-10-09T06:51:29.184Z,13.62
2022-10-09T06:53:59.710Z,13.62
2022-10-09T06:56:29.271Z,13.61
2022-10-09T06:58:56.904Z,13.68
2022-10-09T07:01:27.179Z,13.74
2022-10-09T07:03:56.594Z,13.78
2022-10-09T07:06:26.389Z,13.83
2022-10-09T07:08:57.673Z,13.86
2022-10-09T07:11:33.243Z,13.93
2022-10-09T07:14:02.786Z,14.04
2022-10-09T07:16:35.040Z,14.19
2022-10-09T07:19:06.555Z,14.40
2022-10-09T07:21:34.970Z,14.53
2022-10-09T07:24:03.002Z,14.65
2022-10-09T07:26:31.551Z,14.80
2022-10-09T07:28:59.233Z,14.88
2022-10-09T07:31:26.250Z,14.91
2022-10-09T07:33:56.608Z,14.93
2022-10-09T07:36:24.347Z,15.07
2022-10-09T07:38:53.605Z,15.11
2022-10-09T07:41:22.288Z,15.19
2022-10-09T07:43:49.669Z,15.32
2022-10-09T07:46:19.323Z,15.43
2022-10-09T07:48:49.562Z,15.61
2022-10-09T07:51:25.904Z,15.77
2022-10-09T07:53:53.783Z,16.00
2022-10-09T07:56:29.313Z,16.24
2022-10-09T07:58:59.270Z,16.41
2022-10-09T08:01:28.265Z,16.60
2022-10-09T08:03:56.019Z,16.75
2022-10-09T08:06:23.129Z,16.85
2022-10-09T08:08:52.024Z,16.92
2022-10-09T08:11:20.363Z,17.02
2022-10-09T08:13:48.827Z,17.15
2022-10-09T08:16:16.507Z,17.20
2022-10-09T08:18:43.581Z,17.24
2022-10-09T08:21:15.607Z,17.41
2022-10-09T08:23:42.703Z,17.53
2022-10-09T08:26:18.702Z,17.75
2022-10-09T08:28:51.611Z,17.94
2022-10-09T08:31:18.955Z,18.08
2022-10-09T08:33:46.166Z,18.23
2022-10-09T08:36:15.419Z,18.30
2022-10-09T08:38:47.900Z,18.39
2022-10-09T08:41:42.228Z,18.63
2022-10-09T08:44:24.287Z,18.80
2022-10-09T08:47:06.985Z,18.85
2022-10-09T08:49:53.131Z,19.00
2022-10-09T08:52:29.269Z,19.19
2022-10-09T08:54:59.411Z,19.36
2022-10-09T08:57:30.673Z,19.51
2022-10-09T08:59:57.658Z,19.62
2022-10-09T09:02:24.544Z,19.75
2022-10-09T09:05:12.859Z,19.87
2022-10-09T09:08:12.706Z,19.96
2022-10-09T09:11:10.508Z,20.08
2022-10-09T09:13:43.481Z,20.14
2022-10-09T09:16:16.202Z,20.19
2022-10-09T09:19:08.326Z,20.31
2022-10-09T09:21:53.891Z,20.43
2022-10-09T09:24:28.002Z,20.57
2022-10-09T09:27:00.732Z,20.69
2022-10-09T09:29:31.646Z,20.80
2022-10-09T09:32:01.385Z,20.84
2022-10-09T09:34:41.115Z,20.91
2022-10-09T09:37:10.857Z,20.97
2022-10-09T09:42:29.863Z,21.16
2022-10-09T09:45:07.158Z,21.27
2022-10-09T09:47:40.023Z,21.19
2022-10-09T09:50:18.485Z,21.23
2022-10-09T09:52:55.941Z,21.30
2022-10-09T09:55:27.606Z,21.44
2022-10-09T09:58:01.971Z,21.44
2022-10-09T10:00:29.270Z,21.38
2022-10-09T10:03:13.029Z,21.22
2022-10-09T10:05:41.550Z,21.31
2022-10-09T10:08:32.243Z,21.47
2022-10-09T10:11:01.499Z,21.65
2022-10-09T10:13:45.892Z,21.86
2022-10-09T10:16:24.976Z,22.03
2022-10-09T10:18:53.338Z,22.12
2022-10-09T10:21:21.325Z,22.24
2022-10-09T10:26:37.232Z,22.39
2022-10-09T10:29:12.943Z,22.53
2022-10-09T10:32:10.650Z,22.72
2022-10-09T10:34:40.875Z,22.89
2022-10-09T10:37:13.813Z,22.96
2022-10-09T10:39:47.158Z,23.08
2022-10-09T10:42:25.168Z,23.18
2022-10-09T10:45:04.252Z,23.37
2022-10-09T10:47:36.947Z,23.62
2022-10-09T10:50:04.246Z,23.86
2022-10-09T10:52:40.644Z,24.12
2022-10-09T10:55:15.858Z,24.34
2022-10-09T10:57:59.065Z,24.60
2022-10-09T11:00:28.355Z,24.82
2022-10-09T11:03:21.765Z,24.94
2022-10-09T11:06:01.626Z,24.82
2022-10-09T11:08:40.582Z,24.66
2022-10-09T11:11:27.048Z,24.58
2022-10-09T11:14:11.509Z,24.58
2022-10-09T11:16:47.792Z,24.77
2022-10-09T11:19:33.600Z,25.18
2022-10-09T11:22:15.124Z,25.47
2022-10-09T11:25:20.507Z,25.80
2022-10-09T11:27:52.855Z,26.20
2022-10-09T11:30:20.130Z,26.50
2022-10-09T11:33:12.736Z,26.80
2022-10-09T11:35:55.637Z,27.00
2022-10-09T11:39:04.094Z,27.23
2022-10-09T11:41:31.563Z,27.45
2022-10-09T11:44:23.185Z,27.84
2022-10-09T11:47:02.181Z,28.22
2022-10-09T11:49:50.561Z,28.52
2022-10-09T11:52:38.143Z,28.62
2022-10-09T11:55:27.665Z,28.51
2022-10-09T11:57:55.096Z,28.60
2022-10-09T12:00:33.884Z,28.49
2022-10-09T12:03:03.893Z,28.07
2022-10-09T12:05:40.446Z,28.30
2022-10-09T12:08:14.052Z,28.93
2022-10-09T12:10:53.983Z,29.49
2022-10-09T12:13:39.260Z,29.94
2022-10-09T12:16:09.164Z,30.21
2022-10-09T12:18:39.343Z,30.49
2022-10-09T12:21:23.464Z,30.87
2022-10-09T12:23:51.824Z,31.17
2022-10-09T12:26:22.023Z,31.35
2022-10-09T12:28:52.447Z,31.45
2022-10-09T12:31:34.192Z,31.47
2022-10-09T12:34:06.095Z,31.62
2022-10-09T12:36:34.266Z,31.67
2022-10-09T12:39:16.080Z,31.56
2022-10-09T12:41:46.711Z,31.70
2022-10-09T12:44:38.763Z,31.98
2022-10-09T12:47:13.317Z,32.30
2022-10-09T12:49:40.432Z,32.66
2022-10-09T12:52:16.502Z,32.98
2022-10-09T12:54:45.046Z,33.05
2022-10-09T12:57:15.974Z,32.91
2022-10-09T12:59:45.521Z,32.77
2022-10-09T13:02:20.509Z,31.76
2022-10-09T13:05:02.323Z,30.40
2022-10-09T13:07:32.507Z,29.35
2022-10-09T13:10:18.894Z,28.52
2022-10-09T13:12:52.012Z,27.78
2022-10-09T13:15:35.178Z,27.22
2022-10-09T13:18:20.055Z,26.59
2022-10-09T13:20:57.959Z,25.93
2022-10-09T13:23:34.333Z,25.53
2022-10-09T13:26:04.560Z,25.21
2022-10-09T13:28:32.388Z,24.80
2022-10-09T13:31:07.868Z,24.63
2022-10-09T13:33:34.989Z,24.37
2022-10-09T13:36:01.917Z,24.28
2022-10-09T13:38:32.654Z,24.03
2022-10-09T13:41:02.374Z,23.88
2022-10-09T13:43:31.199Z,23.77
2022-10-09T13:45:59.354Z,23.74
2022-10-09T13:48:26.585Z,23.83
2022-10-09T13:50:53.865Z,23.93
2022-10-09T13:53:20.783Z,24.26
2022-10-09T13:55:47.787Z,24.53
2022-10-09T13:58:14.691Z,24.59
2022-10-09T14:00:44.995Z,24.60
2022-10-09T14:03:12.043Z,24.73
2022-10-09T14:05:38.935Z,24.80
2022-10-09T14:08:06.479Z,24.99
2022-10-09T14:10:33.512Z,25.13
2022-10-09T14:13:00.473Z,25.27
2022-10-09T14:15:27.574Z,25.23
2022-10-09T14:17:55.299Z,24.96
2022-10-09T14:20:25.211Z,24.57
2022-10-09T14:22:52.438Z,24.42
2022-10-09T14:25:19.471Z,24.22
2022-10-09T14:27:46.710Z,24.07
2022-10-09T14:30:13.883Z,23.79
2022-10-09T14:32:40.758Z,23.68
2022-10-09T14:35:08.093Z,23.59
2022-10-09T14:37:41.510Z,23.55
2022-10-09T14:40:10.618Z,23.62
2022-10-09T14:42:39.150Z,23.72
2022-10-09T14:45:07.084Z,23.77
2022-10-09T14:47:34.076Z,23.82
2022-10-09T14:50:01.460Z,23.85
2022-10-09T14:52:28.374Z,23.74
2022-10-09T14:54:55.501Z,23.64
2022-10-09T14:57:22.400Z,23.53
2022-10-09T14:59:49.366Z,23.42
2022-10-09T15:02:17.407Z,23.22
2022-10-09T15:04:44.952Z,22.95
2022-10-09T15:07:11.866Z,22.86
2022-10-09T15:09:41.242Z,22.76
2022-10-09T15:12:08.160Z,22.72
2022-10-09T15:14:35.159Z,22.67
2022-10-09T15:17:02.138Z,22.55
2022-10-09T15:19:29.171Z,22.43
2022-10-09T15:21:56.079Z,22.31
2022-10-09T15:24:23.076Z,22.09
2022-10-09T15:26:50.031Z,21.94
2022-10-09T15:29:17.014Z,21.81
2022-10-09T15:31:44.269Z,21.85
2022-10-09T15:34:17.637Z,21.99
2022-10-09T15:36:46.945Z,21.81
2022-10-09T15:39:14.047Z,21.70
2022-10-09T15:41:43.364Z,21.54
2022-10-09T15:44:18.952Z,21.44
2022-10-09T15:46:49.311Z,21.31
2022-10-09T15:49:16.798Z,21.26
2022-10-09T15:51:44.144Z,21.20
2022-10-09T15:54:12.614Z,21.16
2022-10-09T15:56:41.471Z,21.07
2022-10-09T15:59:12.778Z,21.03
2022-10-09T16:01:40.960Z,20.94
2022-10-09T16:04:08.204Z,20.90
2022-10-09T16:06:35.783Z,20.85
2022-10-09T16:09:04.623Z,20.77
2022-10-09T16:11:32.159Z,20.71
2022-10-09T16:13:59.418Z,20.68
2022-10-09T16:16:28.381Z,20.67
2022-10-09T16:18:56.086Z,20.63
2022-10-09T16:21:26.206Z,20.61
2022-10-09T16:23:58.154Z,20.57
2022-10-09T16:26:26.812Z,20.55
2022-10-09T16:28:54.317Z,20.52
2022-10-09T16:31:24.295Z,20.47
2022-10-09T16:33:51.861Z,20.40
2022-10-09T16:36:19.927Z,20.35
2022-10-09T16:38:46.946Z,20.29
2022-10-09T16:41:18.056Z,20.23
2022-10-09T16:43:47.274Z,20.20
2022-10-09T16:46:19.077Z,20.14
2022-10-09T16:48:47.542Z,20.05
2022-10-09T16:51:17.426Z,20.05
2022-10-09T16:53:48.728Z,19.98
2022-10-09T16:56:20.092Z,19.92
2022-10-09T16:58:47.939Z,19.86
2022-10-09T17:01:15.959Z,19.81
2022-10-09T17:03:43.223Z,19.74
2022-10-09T17:06:16.604Z,19.70
2022-10-09T17:08:43.907Z,19.61
2022-10-09T17:11:13.446Z,19.54
2022-10-09T17:13:41.337Z,19.44
2022-10-09T17:16:14.427Z,19.35
2022-10-09T17:18:45.406Z,19.25
2022-10-09T17:21:13.391Z,19.18
2022-10-09T17:23:41.475Z,19.11
2022-10-09T17:26:14.502Z,19.04
2022-10-09T17:28:42.352Z,18.95
2022-10-09T17:31:16.891Z,18.85
2022-10-09T17:33:47.128Z,18.76
2022-10-09T17:36:19.744Z,18.71
2022-10-09T17:38:48.308Z,18.65
2022-10-09T17:41:19.212Z,18.56
2022-10-09T17:43:46.907Z,18.57
2022-10-09T17:46:15.080Z,18.53
2022-10-09T17:48:46.390Z,18.48
2022-10-09T17:51:21.551Z,18.46
2022-10-09T17:53:49.364Z,18.42
2022-10-09T17:56:16.635Z,18.45
2022-10-09T17:58:45.112Z,18.45
2022-10-09T18:01:12.500Z,18.44
2022-10-09T18:03:40.669Z,18.42
2022-10-09T18:06:10.000Z,18.41
2022-10-09T18:08:37.221Z,18.36
2022-10-09T18:11:08.005Z,18.34
2022-10-09T18:13:38.168Z,18.32
2022-10-09T18:16:11.256Z,18.31
2022-10-09T18:18:39.795Z,18.23
2022-10-09T18:21:11.814Z,18.23
2022-10-09T18:23:39.076Z,18.17
2022-10-09T18:26:11.413Z,18.16
2022-10-09T18:28:39.233Z,18.08
2022-10-09T18:31:13.028Z,18.07
2022-10-09T18:33:40.844Z,18.01
2022-10-09T18:36:14.151Z,18.02
2022-10-09T18:38:41.442Z,17.98
2022-10-09T18:41:09.402Z,17.98
2022-10-09T18:43:37.085Z,17.95
2022-10-09T18:46:04.133Z,17.93
2022-10-09T18:48:36.988Z,17.93
2022-10-09T18:51:06.890Z,17.95
2022-10-09T18:53:37.257Z,17.93
2022-10-09T18:56:07.271Z,17.89
2022-10-09T18:58:34.950Z,17.91
2022-10-09T19:01:05.468Z,17.88
2022-10-09T19:03:36.812Z,17.84
2022-10-09T19:06:04.979Z,17.82
2022-10-09T19:08:32.361Z,17.80
2022-10-09T19:10:59.618Z,17.78
2022-10-09T19:13:27.259Z,17.76
2022-10-09T19:15:58.352Z,17.73
2022-10-09T19:18:27.419Z,17.70
2022-10-09T19:20:54.471Z,17.66
2022-10-09T19:23:21.780Z,17.63
2022-10-09T19:25:50.400Z,17.61
2022-10-09T19:28:18.097Z,17.53
2022-10-09T19:30:46.186Z,17.56
2022-10-09T19:33:13.997Z,17.51
2022-10-09T19:35:48.818Z,17.46
2022-10-09T19:38:16.643Z,17.44
2022-10-09T19:40:44.291Z,17.45
2022-10-09T19:43:12.140Z,17.47
2022-10-09T19:45:39.241Z,17.45
2022-10-09T19:48:06.543Z,17.44
2022-10-09T19:50:33.701Z,17.44
2022-10-09T19:53:03.404Z,17.45
2022-10-09T19:55:33.381Z,17.46
2022-10-09T19:58:00.723Z,17.45
2022-10-09T20:00:27.923Z,17.38
2022-10-09T20:02:56.650Z,17.35
2022-10-09T20:05:23.961Z,17.36
2022-10-09T20:07:51.004Z,17.36
2022-10-09T20:10:18.856Z,17.36
2022-10-09T20:12:45.841Z,17.36
2022-10-09T20:15:13.522Z,17.37
2022-10-09T20:17:40.961Z,17.37
2022-10-09T20:20:08.660Z,17.36
2022-10-09T20:22:35.568Z,17.32
2022-10-09T20:25:03.704Z,17.30
2022-10-09T20:27:31.140Z,17.28
2022-10-09T20:29:58.278Z,17.24
2022-10-09T20:32:25.849Z,17.09
2022-10-09T20:34:53.838Z,16.87
2022-10-09T20:37:20.787Z,16.81
2022-10-09T20:39:49.456Z,16.80
2022-10-09T20:42:16.481Z,16.78
2022-10-09T20:44:43.827Z,16.78
2022-10-09T20:47:11.014Z,16.74
2022-10-09T20:49:38.168Z,16.74
2022-10-09T20:52:05.338Z,16.72
2022-10-09T20:54:33.214Z,16.68
2022-10-09T20:57:00.207Z,16.64
2022-10-09T20:59:27.518Z,16.60
2022-10-09T21:01:54.463Z,16.55
2022-10-09T21:04:21.468Z,16.58
2022-10-09T21:06:48.412Z,16.55
2022-10-09T21:09:16.175Z,16.49
2022-10-09T21:11:45.881Z,16.40
2022-10-09T21:14:14.435Z,16.33
2022-10-09T21:16:41.326Z,16.25
2022-10-09T21:19:11.070Z,16.20
2022-10-09T21:21:39.044Z,16.14
2022-10-09T21:24:06.948Z,16.11
2022-10-09T21:26:39.585Z,16.10
2022-10-09T21:29:07.152Z,16.10
2022-10-09T21:31:34.324Z,16.07
2022-10-09T21:34:02.427Z,16.04
2022-10-09T21:37:02.305Z,16.09
2022-10-09T21:39:31.327Z,16.09
2022-10-09T21:41:58.283Z,16.14
2022-10-09T21:44:25.560Z,16.20
2022-10-09T21:46:52.881Z,16.23
2022-10-09T21:49:24.196Z,16.27
2022-10-09T21:51:51.902Z,16.28
2022-10-09T21:54:19.295Z,16.32
2022-10-09T21:56:46.790Z,16.37
2022-10-09T21:59:13.929Z,16.41
2022-10-09T22:01:41.323Z,16.42
2022-10-09T22:04:08.686Z,16.42
2022-10-09T22:06:35.649Z,16.42
2022-10-09T22:09:03.019Z,16.42
2022-10-09T22:11:30.305Z,16.35
2022-10-09T22:13:57.332Z,16.24
2022-10-09T22:16:25.439Z,16.17
2022-10-09T22:18:52.912Z,16.11
2022-10-09T22:21:20.228Z,16.03
2022-10-09T22:23:47.513Z,15.96
2022-10-09T22:26:18.151Z,15.87
2022-10-09T22:28:46.751Z,15.82
2022-10-09T22:31:25.884Z,15.78
2022-10-09T22:33:58.867Z,15.74
2022-10-09T22:36:29.667Z,15.61
2022-10-09T22:38:58.666Z,15.36
2022-10-09T22:41:27.465Z,15.30
2022-10-09T22:43:56.336Z,15.20
2022-10-09T22:46:26.606Z,15.18
2022-10-09T22:48:54.161Z,15.15
2022-10-09T22:51:22.932Z,15.15
2022-10-09T22:53:50.534Z,15.15
2022-10-09T22:56:20.662Z,15.13
2022-10-09T22:58:49.518Z,15.10
2022-10-09T23:01:20.632Z,15.08
2022-10-09T23:03:48.500Z,15.05
2022-10-09T23:06:18.197Z,15.04
2022-10-09T23:08:47.759Z,15.05
2022-10-09T23:11:16.269Z,15.06
2022-10-09T23:13:43.741Z,15.04
2022-10-09T23:16:12.900Z,15.06
2022-10-09T23:18:41.471Z,15.09
2022-10-09T23:21:12.006Z,15.08
2022-10-09T23:23:39.566Z,15.08
2022-10-09T23:26:09.730Z,15.05
2022-10-09T23:28:37.264Z,15.02
2022-10-09T23:31:06.931Z,14.97
2022-10-09T23:33:34.858Z,14.93
2022-10-09T23:36:03.264Z,14.89
2022-10-09T23:38:31.176Z,14.85
2022-10-09T23:41:00.598Z,14.82
2022-10-09T23:43:30.236Z,14.77
2022-10-09T23:45:59.333Z,14.71
2022-10-09T23:48:27.992Z,14.62
2022-10-09T23:50:56.384Z,14.62
2022-10-09T23:53:26.116Z,14.61
2022-10-09T23:55:54.707Z,14.60
2022-10-09T23:58:22.353Z,14.48
